createdAt,value
2019-03-11T00:02:17.360Z,94416.84
2019-03-11T00:04:50.404Z,94415.72
2019-03-11T00:07:23.416Z,94420.89
2019-03-11T00:09:56.460Z,94418.94
2019-03-11T00:12:30.073Z,94419.60
2019-03-11T00:15:03.100Z,94418.41
2019-03-11T00:17:36.252Z,94408.34
2019-03-11T00:20:09.967Z,94412.53
2019-03-11T00:22:43.178Z,94411.77
2019-03-11T00:25:16.457Z,94405.37
2019-03-11T00:27:49.825Z,94410.33
2019-03-11T00:30:23.036Z,94408.94
2019-03-11T00:32:55.852Z,94409.92
2019-03-11T00:35:29.057Z,94400.95
2019-03-11T00:38:01.951Z,94406.07
2019-03-11T00:40:35.066Z,94405.06
2019-03-11T00:43:08.231Z,94412.27
2019-03-11T00:45:41.254Z,94407.00
2019-03-11T00:48:14.201Z,94403.62
2019-03-11T00:50:47.325Z,94408.10
2019-03-11T00:53:20.199Z,94405.23
2019-03-11T00:55:53.089Z,94408.45
2019-03-11T00:58:26.055Z,94401.73
2019-03-11T01:00:59.062Z,94408.84
2019-03-11T01:03:32.002Z,94407.89
2019-03-11T01:06:04.890Z,94399.68
2019-03-11T01:08:37.783Z,94396.29
2019-03-11T01:11:10.988Z,94391.64
2019-03-11T01:13:44.145Z,94396.12
2019-03-11T01:16:27.928Z,94386.14
2019-03-11T01:19:00.834Z,94383.80
2019-03-11T01:21:33.352Z,94377.63
2019-03-11T01:24:06.227Z,94376.59
2019-03-11T01:26:39.111Z,94372.27
2019-03-11T01:29:11.924Z,94372.79
2019-03-11T01:31:45.039Z,94373.56
2019-03-11T01:34:18.007Z,94373.15
2019-03-11T01:36:50.733Z,94375.81
2019-03-11T01:39:23.469Z,94370.02
2019-03-11T01:41:56.062Z,94367.16
2019-03-11T01:44:33.136Z,94371.75
2019-03-11T01:47:06.037Z,94375.89
2019-03-11T01:49:38.746Z,94369.14
2019-03-11T01:52:11.515Z,94374.98
2019-03-11T01:54:45.548Z,94376.07
2019-03-11T01:57:18.402Z,94367.09
2019-03-11T01:59:51.502Z,94367.47
2019-03-11T02:02:24.288Z,94367.97
2019-03-11T02:04:57.292Z,94370.52
2019-03-11T02:07:30.249Z,94370.18
2019-03-11T02:10:03.202Z,94368.37
2019-03-11T02:12:36.132Z,94365.72
2019-03-11T02:15:10.494Z,94370.29
2019-03-11T02:17:43.533Z,94371.41
2019-03-11T02:20:16.664Z,94369.41
2019-03-11T02:22:49.560Z,94373.72
2019-03-11T02:25:22.666Z,94375.55
2019-03-11T02:27:55.426Z,94366.62
2019-03-11T02:30:28.337Z,94371.31
2019-03-11T02:33:01.718Z,94371.88
2019-03-11T02:35:34.769Z,94368.48
2019-03-11T02:38:07.648Z,94375.52
2019-03-11T02:40:40.651Z,94370.27
2019-03-11T02:43:13.293Z,94376.30
2019-03-11T02:45:47.770Z,94383.14
2019-03-11T02:48:20.578Z,94383.73
2019-03-11T02:50:53.400Z,94388.78
2019-03-11T02:53:26.333Z,94394.12
2019-03-11T02:55:59.200Z,94395.83
2019-03-11T02:58:32.066Z,94396.40
2019-03-11T03:01:25.350Z,94401.82
2019-03-11T03:04:14.176Z,94406.74
2019-03-11T03:06:47.109Z,94405.13
2019-03-11T03:09:20.341Z,94405.79
2019-03-11T03:11:53.221Z,94401.86
2019-03-11T03:14:26.419Z,94408.36
2019-03-11T03:16:59.454Z,94406.68
2019-03-11T03:19:32.342Z,94408.13
2019-03-11T03:22:05.353Z,94413.91
2019-03-11T03:24:38.346Z,94412.72
2019-03-11T03:27:12.165Z,94418.70
2019-03-11T03:29:45.394Z,94417.02
2019-03-11T03:32:18.116Z,94421.62
2019-03-11T03:34:51.086Z,94420.00
2019-03-11T03:37:24.125Z,94422.52
2019-03-11T03:39:57.008Z,94425.66
2019-03-11T03:42:29.986Z,94424.77
2019-03-11T03:45:37.946Z,94427.38
2019-03-11T03:48:11.282Z,94429.41
2019-03-11T03:50:43.993Z,94427.98
2019-03-11T03:53:16.875Z,94422.73
2019-03-11T03:55:49.804Z,94434.58
2019-03-11T03:58:22.812Z,94435.64
2019-03-11T04:00:56.945Z,94442.88
2019-03-11T04:03:29.923Z,94449.38
2019-03-11T04:06:02.779Z,94454.98
2019-03-11T04:08:35.771Z,94460.03
2019-03-11T04:11:08.536Z,94463.62
2019-03-11T04:13:41.328Z,94461.36
2019-03-11T04:16:14.249Z,94462.53
2019-03-11T04:18:57.953Z,94467.18
2019-03-11T04:21:31.193Z,94469.45
2019-03-11T04:24:04.793Z,94469.39
2019-03-11T04:26:38.828Z,94465.81
2019-03-11T04:29:11.844Z,94479.27
2019-03-11T04:31:44.701Z,94483.36
2019-03-11T04:34:17.747Z,94488.33
2019-03-11T04:36:50.816Z,94483.92
2019-03-11T04:39:23.725Z,94491.77
2019-03-11T04:41:56.724Z,94492.91
2019-03-11T04:44:30.155Z,94493.05
2019-03-11T04:47:02.964Z,94488.88
2019-03-11T04:49:36.319Z,94492.07
2019-03-11T04:52:10.287Z,94491.13
2019-03-11T04:54:43.152Z,94490.80
2019-03-11T04:57:15.850Z,94484.32
2019-03-11T04:59:48.863Z,94491.38
2019-03-11T05:02:21.766Z,94492.36
2019-03-11T05:04:54.660Z,94489.84
2019-03-11T05:07:27.853Z,94498.04
2019-03-11T05:10:00.954Z,94501.09
2019-03-11T05:12:34.036Z,94501.02
2019-03-11T05:15:07.601Z,94503.70
2019-03-11T05:17:40.436Z,94499.20
2019-03-11T05:20:14.173Z,94493.91
2019-03-11T05:22:47.257Z,94486.97
2019-03-11T05:25:20.338Z,94490.06
2019-03-11T05:27:53.507Z,94484.92
2019-03-11T05:30:26.454Z,94490.58
2019-03-11T05:32:59.351Z,94481.69
2019-03-11T05:35:32.586Z,94480.43
2019-03-11T05:38:05.233Z,94476.53
2019-03-11T05:40:38.481Z,94477.77
2019-03-11T05:43:11.530Z,94478.02
2019-03-11T05:45:44.602Z,94479.90
2019-03-11T05:48:17.902Z,94471.58
2019-03-11T05:50:51.065Z,94471.70
2019-03-11T05:53:23.782Z,94471.17
2019-03-11T05:55:56.626Z,94472.52
2019-03-11T05:58:29.568Z,94468.36
2019-03-11T06:01:02.523Z,94467.55
2019-03-11T06:03:36.252Z,94472.86
2019-03-11T06:06:09.255Z,94465.95
2019-03-11T06:08:42.086Z,94461.30
2019-03-11T06:11:15.356Z,94468.93
2019-03-11T06:13:48.907Z,94476.55
2019-03-11T06:16:22.225Z,94477.84
2019-03-11T06:18:55.416Z,94477.31
2019-03-11T06:21:41.254Z,94485.47
2019-03-11T06:24:14.236Z,94484.88
2019-03-11T06:26:47.533Z,94486.83
2019-03-11T06:29:29.898Z,94486.11
2019-03-11T06:31:55.702Z,94484.61
2019-03-11T06:34:28.614Z,94484.20
2019-03-11T06:37:01.545Z,94482.40
2019-03-11T06:39:34.685Z,94478.36
2019-03-11T06:42:07.854Z,94471.67
2019-03-11T06:44:41.238Z,94468.21
2019-03-11T06:47:14.481Z,94463.77
2019-03-11T06:49:47.959Z,94454.64
2019-03-11T06:52:20.968Z,94455.33
2019-03-11T06:54:54.156Z,94453.02
2019-03-11T06:57:27.341Z,94443.98
2019-03-11T07:00:01.059Z,94437.87
2019-03-11T07:02:34.459Z,94430.91
2019-03-11T07:05:18.896Z,94432.59
2019-03-11T07:07:43.091Z,94429.34
2019-03-11T07:10:16.168Z,94424.29
2019-03-11T07:12:49.917Z,94424.09
2019-03-11T07:15:23.243Z,94417.25
2019-03-11T07:17:56.277Z,94408.38
2019-03-11T07:20:29.590Z,94407.70
2019-03-11T07:23:02.706Z,94409.83
2019-03-11T07:25:35.702Z,94406.77
2019-03-11T07:28:08.858Z,94399.98
2019-03-11T07:30:42.492Z,94404.41
2019-03-11T07:33:20.261Z,94402.39
2019-03-11T07:35:53.448Z,94400.13
2019-03-11T07:38:26.758Z,94395.83
2019-03-11T07:41:01.332Z,94391.94
2019-03-11T07:43:35.022Z,94378.47
2019-03-11T07:46:08.203Z,94382.86
2019-03-11T07:48:41.530Z,94384.95
2019-03-11T07:51:14.930Z,94382.67
2019-03-11T07:53:47.947Z,94368.97
2019-03-11T07:56:20.846Z,94374.86
2019-03-11T07:58:54.306Z,94372.48
2019-03-11T08:01:27.506Z,94368.83
2019-03-11T08:04:00.395Z,94368.87
2019-03-11T08:06:33.709Z,94369.94
2019-03-11T08:09:08.299Z,94368.25
2019-03-11T08:11:42.638Z,94371.97
2019-03-11T08:14:16.227Z,94362.81
2019-03-11T08:16:49.968Z,94358.76
2019-03-11T08:19:22.942Z,94354.72
2019-03-11T08:21:56.229Z,94348.77
2019-03-11T08:24:29.507Z,94348.02
2019-03-11T08:27:02.606Z,94344.44
2019-03-11T08:29:35.829Z,94346.43
2019-03-11T08:32:08.940Z,94336.38
2019-03-11T08:34:42.153Z,94334.83
2019-03-11T08:37:15.149Z,94327.20
2019-03-11T08:39:48.247Z,94321.99
2019-03-11T08:42:21.724Z,94322.97
2019-03-11T08:44:54.730Z,94321.39
2019-03-11T08:47:27.981Z,94322.06
2019-03-11T08:50:01.017Z,94324.89
2019-03-11T08:52:34.059Z,94316.11
2019-03-11T08:55:07.940Z,94314.60
2019-03-11T08:57:41.525Z,94311.81
2019-03-11T09:00:15.027Z,94302.58
2019-03-11T09:02:48.200Z,94296.28
2019-03-11T09:05:21.584Z,94290.81
2019-03-11T09:07:54.690Z,94278.36
2019-03-11T09:10:27.576Z,94280.95
2019-03-11T09:13:00.778Z,94275.20
2019-03-11T09:15:34.129Z,94264.95
2019-03-11T09:18:07.512Z,94270.55
2019-03-11T09:20:40.755Z,94266.41
2019-03-11T09:23:14.460Z,94264.28
2019-03-11T09:25:47.573Z,94264.32
2019-03-11T09:28:20.827Z,94259.74
2019-03-11T09:30:54.497Z,94253.06
2019-03-11T09:33:28.060Z,94247.92
2019-03-11T09:36:01.645Z,94241.72
2019-03-11T09:38:34.980Z,94248.95
2019-03-11T09:41:08.713Z,94249.48
2019-03-11T09:43:41.876Z,94260.55
2019-03-11T09:46:14.830Z,94247.65
2019-03-11T09:48:48.029Z,94245.84
2019-03-11T09:51:21.779Z,94247.34
2019-03-11T09:53:55.002Z,94245.34
2019-03-11T09:56:28.665Z,94246.38
2019-03-11T09:59:01.976Z,94245.41
2019-03-11T10:01:35.183Z,94249.50
2019-03-11T10:04:09.051Z,94250.98
2019-03-11T10:06:42.345Z,94247.13
2019-03-11T10:09:15.759Z,94243.71
2019-03-11T10:11:48.907Z,94245.41
2019-03-11T10:14:22.405Z,94243.14
2019-03-11T10:16:55.266Z,94241.95
2019-03-11T10:19:28.923Z,94239.51
2019-03-11T10:22:02.909Z,94239.20
2019-03-11T10:24:36.130Z,94235.52
2019-03-11T10:27:09.437Z,94237.09
2019-03-11T10:29:42.619Z,94238.71
2019-03-11T10:32:15.501Z,94237.06
2019-03-11T10:34:48.582Z,94235.95
2019-03-11T10:37:22.003Z,94227.09
2019-03-11T10:39:55.126Z,94226.03
2019-03-11T10:42:28.281Z,94219.77
2019-03-11T10:45:01.101Z,94218.16
2019-03-11T10:47:34.660Z,94215.77
2019-03-11T10:50:08.920Z,94216.77
2019-03-11T10:52:42.053Z,94219.98
2019-03-11T10:55:16.072Z,94213.20
2019-03-11T10:57:49.849Z,94211.43
2019-03-11T11:00:25.723Z,94208.61
2019-03-11T11:02:58.767Z,94205.16
2019-03-11T11:05:32.144Z,94200.83
2019-03-11T11:08:05.354Z,94189.09
2019-03-11T11:10:38.407Z,94182.65
2019-03-11T11:13:11.597Z,94185.86
2019-03-11T11:15:44.723Z,94178.94
2019-03-11T11:18:17.807Z,94174.16
2019-03-11T11:20:51.155Z,94167.52
2019-03-11T11:23:24.641Z,94169.05
2019-03-11T11:26:00.779Z,94167.69
2019-03-11T11:28:33.689Z,94159.53
2019-03-11T11:31:07.305Z,94161.24
2019-03-11T11:33:40.776Z,94151.85
2019-03-11T11:36:15.894Z,94146.17
2019-03-11T11:38:49.253Z,94141.33
2019-03-11T11:41:22.542Z,94135.62
2019-03-11T11:43:55.728Z,94127.13
2019-03-11T11:46:28.755Z,94120.76
2019-03-11T11:49:01.997Z,94116.63
2019-03-11T11:51:35.318Z,94114.69
2019-03-11T11:54:08.702Z,94107.00
2019-03-11T11:56:41.842Z,94098.77
2019-03-11T11:59:14.977Z,94095.14
2019-03-11T12:02:03.624Z,94086.54
2019-03-11T12:04:32.549Z,94082.83
2019-03-11T12:07:06.761Z,94075.88
2019-03-11T12:09:40.062Z,94066.56
2019-03-11T12:12:13.292Z,94072.55
2019-03-11T12:14:46.664Z,94070.52
2019-03-11T12:17:19.855Z,94065.83
2019-03-11T12:19:52.957Z,94062.94
2019-03-11T12:22:46.230Z,94064.95
2019-03-11T12:25:19.833Z,94057.36
2019-03-11T12:27:54.689Z,94056.37
2019-03-11T12:30:28.778Z,94052.90
2019-03-11T12:33:02.596Z,94046.80
2019-03-11T12:35:36.158Z,94045.27
2019-03-11T12:38:09.854Z,94048.83
2019-03-11T12:40:42.996Z,94043.67
2019-03-11T12:43:16.359Z,94041.73
2019-03-11T12:45:49.500Z,94044.26
2019-03-11T12:48:22.532Z,94042.09
2019-03-11T12:50:55.906Z,94044.55
2019-03-11T12:53:28.978Z,94039.15
2019-03-11T12:56:01.962Z,94035.86
2019-03-11T12:58:41.488Z,94032.94
2019-03-11T13:01:11.953Z,94023.14
2019-03-11T13:03:46.361Z,94028.00
2019-03-11T13:06:22.394Z,94024.84
2019-03-11T13:08:55.527Z,94019.14
2019-03-11T13:11:31.984Z,94014.11
2019-03-11T13:14:05.738Z,94009.33
2019-03-11T13:16:38.468Z,94000.05
2019-03-11T13:19:13.423Z,93999.73
2019-03-11T13:21:47.681Z,94002.55
2019-03-11T13:24:20.995Z,94003.95
2019-03-11T13:26:54.176Z,94008.37
2019-03-11T13:29:27.309Z,94003.13
2019-03-11T13:32:00.202Z,93998.86
2019-03-11T13:34:33.414Z,94001.45
2019-03-11T13:37:06.681Z,93995.80
2019-03-11T13:39:39.948Z,93993.88
2019-03-11T13:42:13.071Z,93987.69
2019-03-11T13:44:47.037Z,93985.11
2019-03-11T13:47:20.339Z,93982.83
2019-03-11T13:49:53.310Z,93983.75
2019-03-11T13:52:26.450Z,93980.45
2019-03-11T13:55:09.765Z,93969.91
2019-03-11T13:57:34.522Z,93967.41
2019-03-11T14:00:07.997Z,93963.73
2019-03-11T14:02:41.118Z,93959.63
2019-03-11T14:05:14.173Z,93956.36
2019-03-11T14:07:47.268Z,93943.66
2019-03-11T14:10:20.618Z,93951.88
2019-03-11T14:12:53.967Z,93950.88
2019-03-11T14:15:27.385Z,93941.45
2019-03-11T14:18:00.935Z,93944.12
2019-03-11T14:20:33.903Z,93952.14
2019-03-11T14:23:06.746Z,93951.00
2019-03-11T14:25:41.204Z,93949.56
2019-03-11T14:28:14.150Z,93949.05
2019-03-11T14:30:47.685Z,93942.66
2019-03-11T14:33:22.133Z,93948.51
2019-03-11T14:35:55.354Z,93934.85
2019-03-11T14:38:28.507Z,93943.02
2019-03-11T14:41:01.852Z,93937.83
2019-03-11T14:43:34.907Z,93929.09
2019-03-11T14:46:08.121Z,93935.91
2019-03-11T14:48:41.642Z,93933.97
2019-03-11T14:51:14.981Z,93932.45
2019-03-11T14:53:47.862Z,93948.27
2019-03-11T14:56:21.173Z,93948.81
2019-03-11T14:58:54.246Z,93949.89
2019-03-11T15:01:27.846Z,93949.03
2019-03-11T15:04:00.819Z,93936.94
2019-03-11T15:06:33.893Z,93949.31
2019-03-11T15:09:08.429Z,93938.86
2019-03-11T15:11:41.574Z,93943.91
2019-03-11T15:14:14.786Z,93943.91
2019-03-11T15:16:48.053Z,93943.52
2019-03-11T15:19:21.651Z,93943.98
2019-03-11T15:21:54.874Z,93951.57
2019-03-11T15:24:30.925Z,93962.86
2019-03-11T15:27:04.059Z,93958.11
2019-03-11T15:29:37.264Z,93959.92
2019-03-11T15:32:15.848Z,93968.86
2019-03-11T15:34:48.979Z,93978.13
2019-03-11T15:37:22.630Z,93970.81
2019-03-11T15:39:55.989Z,93965.36
2019-03-11T15:42:29.001Z,93967.25
2019-03-11T15:45:02.096Z,93971.14
2019-03-11T15:47:35.223Z,93983.88
2019-03-11T15:50:13.288Z,93992.38
2019-03-11T15:52:47.116Z,93992.71
2019-03-11T15:55:20.616Z,93998.44
2019-03-11T15:57:55.156Z,93994.28
2019-03-11T16:00:28.204Z,93992.39
2019-03-11T16:03:01.342Z,93995.09
2019-03-11T16:05:35.456Z,93988.80
2019-03-11T16:08:08.403Z,93979.72
2019-03-11T16:10:41.314Z,93993.25
2019-03-11T16:13:14.526Z,94002.17
2019-03-11T16:15:48.707Z,93995.28
2019-03-11T16:18:22.331Z,93998.45
2019-03-11T16:20:56.552Z,94002.16
2019-03-11T16:23:31.271Z,93999.00
2019-03-11T16:26:04.106Z,93988.45
2019-03-11T16:28:47.735Z,93995.77
2019-03-11T16:31:12.996Z,93994.01
2019-03-11T16:33:47.595Z,93995.94
2019-03-11T16:36:31.673Z,93992.75
2019-03-11T16:39:06.177Z,93999.00
2019-03-11T16:41:39.356Z,94010.36
2019-03-11T16:44:12.491Z,94007.17
2019-03-11T16:46:45.311Z,94004.95
2019-03-11T16:49:18.738Z,93999.88
2019-03-11T16:51:51.711Z,94007.30
2019-03-11T16:54:24.535Z,94008.84
2019-03-11T16:56:57.604Z,94013.62
2019-03-11T16:59:33.166Z,94019.37
2019-03-11T17:02:06.934Z,94015.80
2019-03-11T17:04:39.613Z,94030.08
2019-03-11T17:07:12.710Z,94035.28
2019-03-11T17:09:46.370Z,94030.59
2019-03-11T17:12:19.605Z,94030.09
2019-03-11T17:14:52.770Z,94041.62
2019-03-11T17:17:27.337Z,94036.39
2019-03-11T17:20:00.573Z,94027.30
2019-03-11T17:22:33.848Z,94027.51
2019-03-11T17:25:08.093Z,94036.43
2019-03-11T17:27:41.476Z,94035.13
2019-03-11T17:30:17.119Z,94036.66
2019-03-11T17:32:50.417Z,94033.30
2019-03-11T17:35:23.868Z,94034.73
2019-03-11T17:37:57.515Z,94037.94
2019-03-11T17:40:30.802Z,94039.34
2019-03-11T17:43:03.899Z,94038.39
2019-03-11T17:45:36.696Z,94048.59
2019-03-11T17:48:09.351Z,94046.26
2019-03-11T17:50:42.167Z,94038.33
2019-03-11T17:53:19.794Z,94034.70
2019-03-11T17:55:50.472Z,94041.75
2019-03-11T17:58:23.574Z,94045.42
2019-03-11T18:00:56.448Z,94056.63
2019-03-11T18:03:29.267Z,94061.45
2019-03-11T18:06:11.087Z,94067.63
2019-03-11T18:08:37.174Z,94050.04
2019-03-11T18:11:10.501Z,94049.63
2019-03-11T18:13:43.346Z,94049.69
2019-03-11T18:16:16.213Z,94044.17
2019-03-11T18:18:49.502Z,94056.14
2019-03-11T18:21:22.922Z,94055.08
2019-03-11T18:23:55.841Z,94065.02
2019-03-11T18:26:28.906Z,94063.17
2019-03-11T18:29:02.075Z,94078.30
2019-03-11T18:31:35.270Z,94079.33
2019-03-11T18:34:08.265Z,94089.53
2019-03-11T18:36:43.476Z,94097.98
2019-03-11T18:39:19.187Z,94078.80
2019-03-11T18:41:51.469Z,94081.16
2019-03-11T18:44:24.979Z,94085.06
2019-03-11T18:46:57.855Z,94091.63
2019-03-11T18:49:31.124Z,94095.06
2019-03-11T18:52:04.467Z,94092.70
2019-03-11T18:54:38.061Z,94098.58
2019-03-11T18:57:10.989Z,94097.62
2019-03-11T18:59:43.998Z,94100.90
2019-03-11T19:02:16.762Z,94091.97
2019-03-11T19:04:50.049Z,94106.34
2019-03-11T19:07:26.350Z,94096.93
2019-03-11T19:09:59.341Z,94087.52
2019-03-11T19:12:32.655Z,94085.39
2019-03-11T19:15:06.109Z,94086.21
2019-03-11T19:17:38.862Z,94088.42
2019-03-11T19:20:15.108Z,94086.04
2019-03-11T19:22:48.869Z,94081.98
2019-03-11T19:25:22.325Z,94075.11
2019-03-11T19:27:55.255Z,94082.88
2019-03-11T19:30:28.368Z,94075.44
2019-03-11T19:33:01.483Z,94064.78
2019-03-11T19:35:35.472Z,94071.19
2019-03-11T19:38:09.521Z,94064.20
2019-03-11T19:40:44.525Z,94066.88
2019-03-11T19:43:17.724Z,94070.51
2019-03-11T19:45:51.344Z,94068.91
2019-03-11T19:48:27.187Z,94073.38
2019-03-11T19:51:00.316Z,94069.58
2019-03-11T19:53:33.349Z,94060.91
2019-03-11T19:56:06.614Z,94058.23
2019-03-11T19:58:39.134Z,94064.63
2019-03-11T20:01:12.371Z,94061.30
2019-03-11T20:03:45.731Z,94052.72
2019-03-11T20:06:18.709Z,94057.58
2019-03-11T20:08:52.030Z,94055.11
2019-03-11T20:11:25.202Z,94055.55
2019-03-11T20:13:58.140Z,94054.27
2019-03-11T20:16:31.467Z,94056.66
2019-03-11T20:19:04.658Z,94054.27
2019-03-11T20:21:37.863Z,94056.94
2019-03-11T20:24:10.901Z,94055.64
2019-03-11T20:26:43.434Z,94058.95
2019-03-11T20:29:16.703Z,94055.19
2019-03-11T20:31:49.766Z,94059.11
2019-03-11T20:34:23.579Z,94063.77
2019-03-11T20:36:57.148Z,94065.39
2019-03-11T20:39:30.331Z,94069.34
2019-03-11T20:42:03.363Z,94060.41
2019-03-11T20:44:36.524Z,94072.66
2019-03-11T20:47:10.062Z,94074.50
2019-03-11T20:49:43.485Z,94074.51
2019-03-11T20:52:16.720Z,94070.42
2019-03-11T20:54:49.562Z,94068.12
2019-03-11T20:57:22.534Z,94066.13
2019-03-11T20:59:55.507Z,94064.70
2019-03-11T21:02:28.471Z,94067.41
2019-03-11T21:05:01.644Z,94077.55
2019-03-11T21:07:34.716Z,94070.87
2019-03-11T21:10:10.721Z,94075.66
2019-03-11T21:12:44.089Z,94077.83
2019-03-11T21:15:17.784Z,94078.84
2019-03-11T21:17:50.997Z,94080.74
2019-03-11T21:20:24.046Z,94088.44
2019-03-11T21:22:58.354Z,94080.27
2019-03-11T21:25:31.204Z,94087.05
2019-03-11T21:28:05.963Z,94101.89
2019-03-11T21:30:39.419Z,94106.34
2019-03-11T21:33:12.483Z,94104.28
2019-03-11T21:35:46.681Z,94096.04
2019-03-11T21:38:19.564Z,94094.03
2019-03-11T21:40:52.774Z,94103.30
2019-03-11T21:43:27.387Z,94099.72
2019-03-11T21:46:02.180Z,94095.61
2019-03-11T21:48:35.540Z,94089.16
2019-03-11T21:51:07.970Z,94090.14
2019-03-11T21:53:40.785Z,94091.41
2019-03-11T21:56:13.743Z,94094.33
2019-03-11T21:58:47.015Z,94100.17
2019-03-11T22:01:20.071Z,94113.84
2019-03-11T22:03:52.941Z,94111.88
2019-03-11T22:06:25.897Z,94110.20
2019-03-11T22:08:58.687Z,94114.16
2019-03-11T22:11:32.296Z,94112.04
2019-03-11T22:14:05.113Z,94115.45
2019-03-11T22:16:38.738Z,94104.67
2019-03-11T22:19:12.355Z,94101.31
2019-03-11T22:21:45.507Z,94097.09
2019-03-11T22:24:18.358Z,94090.68
2019-03-11T22:26:51.441Z,94086.02
2019-03-11T22:29:24.791Z,94097.83
2019-03-11T22:31:57.944Z,94101.10
2019-03-11T22:34:30.806Z,94090.92
2019-03-11T22:37:03.809Z,94098.27
2019-03-11T22:39:36.778Z,94101.03
2019-03-11T22:42:12.537Z,94104.55
2019-03-11T22:44:45.716Z,94109.21
2019-03-11T22:47:18.594Z,94105.54
2019-03-11T22:49:51.405Z,94105.17
2019-03-11T22:52:24.020Z,94106.34
2019-03-11T22:54:56.989Z,94119.19
2019-03-11T22:57:30.097Z,94121.25
2019-03-11T23:00:03.072Z,94114.85
2019-03-11T23:02:40.242Z,94114.53
2019-03-11T23:05:11.231Z,94110.99
2019-03-11T23:07:44.323Z,94111.24
2019-03-11T23:10:17.138Z,94122.17
2019-03-11T23:12:50.159Z,94121.91
2019-03-11T23:15:23.252Z,94124.82
2019-03-11T23:17:56.185Z,94137.23
2019-03-11T23:20:30.058Z,94130.45
2019-03-11T23:23:03.201Z,94129.57
2019-03-11T23:25:36.693Z,94138.02
2019-03-11T23:28:09.496Z,94145.16
2019-03-11T23:30:42.451Z,94140.53
2019-03-11T23:33:15.547Z,94122.23
2019-03-11T23:35:48.673Z,94122.45
2019-03-11T23:38:21.730Z,94116.91
2019-03-11T23:40:54.853Z,94114.14
2019-03-11T23:43:27.828Z,94104.95
2019-03-11T23:46:01.015Z,94118.38
2019-03-11T23:48:34.080Z,94131.64
2019-03-11T23:51:06.791Z,94145.39
2019-03-11T23:53:39.597Z,94152.97
2019-03-11T23:56:12.696Z,94159.42
2019-03-11T23:58:46.059Z,94167.61
